createdAt,value
2022-08-14T00:01:10.066Z,16.25
2022-08-14T00:03:38.532Z,17.85
2022-08-14T00:06:25.500Z,19.98
2022-08-14T00:08:54.208Z,17.23
2022-08-14T00:11:26.116Z,15.70
2022-08-14T00:13:55.445Z,15.38
2022-08-14T00:16:40.849Z,14.98
2022-08-14T00:19:19.792Z,15.18
2022-08-14T00:21:52.404Z,21.13
2022-08-14T00:24:28.236Z,16.02
2022-08-14T00:26:57.036Z,14.43
2022-08-14T00:29:25.108Z,13.68
2022-08-14T00:31:56.270Z,14.48
2022-08-14T00:34:37.952Z,13.68
2022-08-14T00:37:10.878Z,21.52
2022-08-14T00:39:37.669Z,14.43
2022-08-14T00:42:05.127Z,15.93
2022-08-14T00:44:33.298Z,16.15
2022-08-14T00:47:10.690Z,19.67
2022-08-14T00:49:42.561Z,15.65
2022-08-14T00:52:17.880Z,18.60
2022-08-14T00:54:46.500Z,15.60
2022-08-14T00:57:13.778Z,15.07
2022-08-14T00:59:41.253Z,15.20
2022-08-14T01:02:09.442Z,17.23
2022-08-14T01:04:53.927Z,17.40
2022-08-14T01:07:23.055Z,17.92
2022-08-14T01:10:01.870Z,17.70
2022-08-14T01:12:30.085Z,17.38
2022-08-14T01:14:59.238Z,17.55
2022-08-14T01:17:50.621Z,15.10
2022-08-14T01:20:39.864Z,16.33
2022-08-14T01:23:16.477Z,16.83
2022-08-14T01:25:45.993Z,17.48
2022-08-14T01:28:34.246Z,16.30
2022-08-14T01:30:59.927Z,17.38
2022-08-14T01:33:39.600Z,26.10
2022-08-14T01:36:23.198Z,15.95
2022-08-14T01:38:56.837Z,14.68
2022-08-14T01:41:30.141Z,15.68
2022-08-14T01:44:02.301Z,17.02
2022-08-14T01:46:36.865Z,16.17
2022-08-14T01:49:07.769Z,16.75
2022-08-14T01:51:35.271Z,16.08
2022-08-14T01:54:09.904Z,17.88
2022-08-14T01:56:42.790Z,17.02
2022-08-14T01:59:21.877Z,17.75
2022-08-14T02:01:58.423Z,18.83
2022-08-14T02:04:55.773Z,16.25
2022-08-14T02:07:17.605Z,18.83
2022-08-14T02:10:01.787Z,15.65
2022-08-14T02:12:29.391Z,15.93
2022-08-14T02:15:00.202Z,16.10
2022-08-14T02:17:29.117Z,18.35
2022-08-14T02:19:57.483Z,17.17
2022-08-14T02:22:29.055Z,15.75
2022-08-14T02:25:01.014Z,17.77
2022-08-14T02:28:24.681Z,17.40
2022-08-14T02:30:15.954Z,15.65
2022-08-14T02:32:43.102Z,16.92
2022-08-14T02:35:18.590Z,18.92
2022-08-14T02:37:50.053Z,17.08
2022-08-14T02:40:31.791Z,18.00
2022-08-14T02:42:59.787Z,17.70
2022-08-14T02:45:38.348Z,19.80
2022-08-14T02:49:04.654Z,17.25
2022-08-14T02:51:00.991Z,15.98
2022-08-14T02:53:29.170Z,17.85
2022-08-14T02:55:56.467Z,19.65
2022-08-14T02:58:31.103Z,17.50
2022-08-14T03:00:59.169Z,17.65
2022-08-14T03:03:26.035Z,17.33
2022-08-14T03:05:54.303Z,16.35
2022-08-14T03:08:22.438Z,16.17
2022-08-14T03:10:50.019Z,16.83
2022-08-14T03:13:21.571Z,16.92
2022-08-14T03:15:55.542Z,16.20
2022-08-14T03:18:31.197Z,17.00
2022-08-14T03:21:05.114Z,15.98
2022-08-14T03:23:36.492Z,21.00
2022-08-14T03:26:13.020Z,17.80
2022-08-14T03:28:51.275Z,19.25
2022-08-14T03:31:26.028Z,16.77
2022-08-14T03:33:55.917Z,18.65
2022-08-14T03:37:50.962Z,15.98
2022-08-14T03:39:21.131Z,17.48
2022-08-14T03:41:59.841Z,18.58
2022-08-14T03:45:27.351Z,19.17
2022-08-14T03:47:15.475Z,15.85
2022-08-14T03:49:43.902Z,16.38
2022-08-14T03:52:28.087Z,15.77
2022-08-14T03:54:59.148Z,18.90
2022-08-14T03:57:25.614Z,20.25
2022-08-14T03:59:52.113Z,15.85
2022-08-14T04:02:32.361Z,19.30
2022-08-14T04:05:12.360Z,16.50
2022-08-14T04:07:49.902Z,18.58
2022-08-14T04:10:32.039Z,18.20
2022-08-14T04:13:03.758Z,17.38
2022-08-14T04:15:31.796Z,18.95
2022-08-14T04:18:18.360Z,17.40
2022-08-14T04:20:54.531Z,18.92
2022-08-14T04:23:23.621Z,16.83
2022-08-14T04:25:55.555Z,17.25
2022-08-14T04:29:01.945Z,16.35
2022-08-14T04:31:11.272Z,19.13
2022-08-14T04:33:37.929Z,18.60
2022-08-14T04:36:05.699Z,17.58
2022-08-14T04:38:54.338Z,15.30
2022-08-14T04:41:43.210Z,16.95
2022-08-14T04:44:09.815Z,17.63
2022-08-14T04:47:11.174Z,16.48
2022-08-14T04:49:46.513Z,17.23
2022-08-14T04:52:24.891Z,19.40
2022-08-14T04:54:52.076Z,21.60
2022-08-14T04:57:21.216Z,15.80
2022-08-14T04:59:49.568Z,18.00
2022-08-14T05:02:17.548Z,17.45
2022-08-14T05:04:45.531Z,18.65
2022-08-14T05:07:46.588Z,22.27
2022-08-14T05:10:16.782Z,17.73
2022-08-14T05:13:13.018Z,17.08
2022-08-14T05:15:37.352Z,19.38
2022-08-14T05:18:37.180Z,17.55
2022-08-14T05:21:57.306Z,20.15
2022-08-14T05:23:52.068Z,46.10
2022-08-14T05:26:21.644Z,22.85
2022-08-14T05:28:48.325Z,17.98
2022-08-14T05:31:20.715Z,17.98
2022-08-14T05:33:56.621Z,19.42
2022-08-14T05:36:24.626Z,19.95
2022-08-14T05:38:53.207Z,24.17
2022-08-14T05:41:20.122Z,19.73
2022-08-14T05:43:48.838Z,21.20
2022-08-14T05:46:18.658Z,19.50
2022-08-14T05:48:53.212Z,19.25
2022-08-14T05:51:23.553Z,17.08
2022-08-14T05:54:00.153Z,20.90
2022-08-14T05:56:29.043Z,19.42
2022-08-14T05:58:55.849Z,19.33
2022-08-14T06:01:22.455Z,20.95
2022-08-14T06:03:50.205Z,20.10
2022-08-14T06:06:21.085Z,20.60
2022-08-14T06:08:47.602Z,20.20
2022-08-14T06:11:14.766Z,18.60
2022-08-14T06:13:47.513Z,19.38
2022-08-14T06:16:17.478Z,18.00
2022-08-14T06:18:47.104Z,18.85
2022-08-14T06:21:15.836Z,18.52
2022-08-14T06:23:44.040Z,19.33
2022-08-14T06:26:15.397Z,18.33
2022-08-14T06:28:45.586Z,20.95
2022-08-14T06:31:12.198Z,17.20
2022-08-14T06:35:04.125Z,17.88
2022-08-14T06:36:25.162Z,18.13
2022-08-14T06:38:54.305Z,17.15
2022-08-14T06:41:57.102Z,17.50
2022-08-14T06:44:10.780Z,16.15
2022-08-14T06:49:05.381Z,16.15
2022-08-14T06:51:44.406Z,14.93
2022-08-14T06:54:11.526Z,14.82
2022-08-14T06:56:38.995Z,14.10
2022-08-14T06:59:15.750Z,16.23
2022-08-14T07:02:05.541Z,15.27
2022-08-14T07:04:58.154Z,16.58
2022-08-14T07:07:25.156Z,15.48
2022-08-14T07:09:55.552Z,16.02
2022-08-14T07:12:54.662Z,12.48
2022-08-14T07:15:09.248Z,13.27
2022-08-14T07:17:44.806Z,13.43
2022-08-14T07:20:11.595Z,13.45
2022-08-14T07:22:50.050Z,13.82
2022-08-14T07:25:23.038Z,14.75
2022-08-14T07:28:00.204Z,12.48
2022-08-14T07:30:33.979Z,12.80
2022-08-14T07:33:01.729Z,12.65
2022-08-14T07:35:30.312Z,21.13
2022-08-14T07:38:06.016Z,13.05
2022-08-14T07:40:35.371Z,11.30
2022-08-14T07:43:14.168Z,14.50
2022-08-14T07:45:41.596Z,12.02
2022-08-14T07:48:09.171Z,12.50
2022-08-14T07:50:42.402Z,14.02
2022-08-14T07:53:14.435Z,12.50
2022-08-14T07:55:42.483Z,17.23
2022-08-14T07:58:30.224Z,13.25
2022-08-14T08:00:58.030Z,11.80
2022-08-14T08:03:28.161Z,13.95
2022-08-14T08:08:26.981Z,13.23
2022-08-14T08:11:02.979Z,14.87
2022-08-14T08:13:33.567Z,11.32
2022-08-14T08:16:02.029Z,11.25
2022-08-14T08:18:29.556Z,12.90
2022-08-14T08:20:59.357Z,10.52
2022-08-14T08:23:34.380Z,8.55
2022-08-14T08:26:06.845Z,9.98
2022-08-14T08:28:34.270Z,9.05
2022-08-14T08:31:04.334Z,8.23
2022-08-14T08:33:36.837Z,10.30
2022-08-14T08:36:07.965Z,8.25
2022-08-14T08:39:18.489Z,11.38
2022-08-14T08:41:22.537Z,8.70
2022-08-14T08:43:51.099Z,8.63
2022-08-14T08:46:21.774Z,10.10
2022-08-14T08:51:25.263Z,9.65
2022-08-14T08:54:05.444Z,11.35
2022-08-14T08:56:40.476Z,9.60
2022-08-14T08:59:20.941Z,11.13
2022-08-14T09:01:56.426Z,10.68
2022-08-14T09:04:29.133Z,10.25
2022-08-14T09:07:09.362Z,12.15
2022-08-14T09:09:56.862Z,13.10
2022-08-14T09:12:27.069Z,13.48
2022-08-14T09:14:57.098Z,10.50
2022-08-14T09:17:25.902Z,9.88
2022-08-14T09:19:53.695Z,10.88
2022-08-14T09:22:36.133Z,13.27
2022-08-14T09:25:07.343Z,9.13
2022-08-14T09:27:35.537Z,9.95
2022-08-14T09:30:02.110Z,9.02
2022-08-14T09:33:04.846Z,9.05
2022-08-14T09:35:40.208Z,10.43
2022-08-14T09:38:25.833Z,6.20
2022-08-14T09:41:13.553Z,5.75
2022-08-14T09:44:07.945Z,8.95
2022-08-14T09:46:35.373Z,7.65
2022-08-14T09:49:07.576Z,11.70
2022-08-14T09:51:44.949Z,7.75
2022-08-14T09:54:23.609Z,6.72
2022-08-14T09:56:59.422Z,8.05
2022-08-14T09:59:28.437Z,5.80
2022-08-14T10:02:01.079Z,5.45
2022-08-14T10:04:34.258Z,6.43
2022-08-14T10:07:05.332Z,6.82
2022-08-14T10:09:34.796Z,9.25
2022-08-14T10:12:04.770Z,7.05
2022-08-14T10:14:36.724Z,9.17
2022-08-14T10:17:06.283Z,6.97
2022-08-14T10:19:36.501Z,8.38
2022-08-14T10:23:13.328Z,7.65
2022-08-14T10:24:56.267Z,6.78
2022-08-14T10:27:26.585Z,6.75
2022-08-14T10:29:58.218Z,6.43
2022-08-14T10:32:28.390Z,8.38
2022-08-14T10:35:14.195Z,7.03
2022-08-14T10:37:49.932Z,10.65
2022-08-14T10:40:38.515Z,9.80
2022-08-14T10:43:23.819Z,7.03
2022-08-14T10:46:21.739Z,5.20
2022-08-14T10:49:05.001Z,4.43
2022-08-14T10:51:36.137Z,5.35
2022-08-14T10:54:16.513Z,3.35
2022-08-14T10:56:58.998Z,5.35
2022-08-14T10:59:34.977Z,3.42
2022-08-14T11:02:22.223Z,3.55
2022-08-14T11:05:14.822Z,2.60
2022-08-14T11:07:43.234Z,2.08
2022-08-14T11:10:13.458Z,5.95
2022-08-14T11:12:46.533Z,5.22
2022-08-14T11:15:15.885Z,2.45
2022-08-14T11:17:45.948Z,5.15
2022-08-14T11:20:16.746Z,5.35
2022-08-14T11:22:52.921Z,3.45
2022-08-14T11:25:43.588Z,3.72
2022-08-14T11:28:14.513Z,4.70
2022-08-14T11:30:53.435Z,4.57
2022-08-14T11:33:29.393Z,3.17
2022-08-14T11:36:00.356Z,5.00
2022-08-14T11:38:35.558Z,2.90
2022-08-14T11:41:06.185Z,4.07
2022-08-14T11:43:56.203Z,5.27
2022-08-14T11:46:29.573Z,3.90
2022-08-14T11:49:05.819Z,5.45
2022-08-14T11:51:42.912Z,2.95
2022-08-14T11:54:20.143Z,4.38
2022-08-14T11:56:50.653Z,2.53
2022-08-14T11:59:19.870Z,3.10
2022-08-14T12:02:09.571Z,5.00
2022-08-14T12:04:56.300Z,9.60
2022-08-14T12:07:24.818Z,6.03
2022-08-14T12:09:56.797Z,2.70
2022-08-14T12:12:47.222Z,3.05
2022-08-14T12:15:13.002Z,4.53
2022-08-14T12:17:51.885Z,3.30
2022-08-14T12:20:30.088Z,2.28
2022-08-14T12:23:00.719Z,3.20
2022-08-14T12:25:29.034Z,3.47
2022-08-14T12:27:59.122Z,3.63
2022-08-14T12:30:39.676Z,3.80
2022-08-14T12:33:32.822Z,2.13
2022-08-14T12:36:07.987Z,3.83
2022-08-14T12:38:37.420Z,3.28
2022-08-14T12:41:10.785Z,3.13
2022-08-14T12:43:51.472Z,2.00
2022-08-14T12:46:43.630Z,2.33
2022-08-14T12:49:17.028Z,2.50
2022-08-14T12:51:56.517Z,2.45
2022-08-14T12:54:28.219Z,2.47
2022-08-14T12:57:14.652Z,2.70
2022-08-14T12:59:45.534Z,3.55
2022-08-14T13:02:26.406Z,1.83
2022-08-14T13:04:55.791Z,3.13
2022-08-14T13:07:24.156Z,1.92
2022-08-14T13:09:55.616Z,2.47
2022-08-14T13:12:33.213Z,2.78
2022-08-14T13:15:08.938Z,1.80
2022-08-14T13:17:44.611Z,3.25
2022-08-14T13:20:24.796Z,4.88
2022-08-14T13:22:53.233Z,2.35
2022-08-14T13:25:22.839Z,2.28
2022-08-14T13:27:54.763Z,4.75
2022-08-14T13:30:24.524Z,4.43
2022-08-14T13:32:57.924Z,3.35
2022-08-14T13:35:25.340Z,2.15
2022-08-14T13:37:53.429Z,3.33
2022-08-14T13:40:26.661Z,3.22
2022-08-14T13:42:56.831Z,2.70
2022-08-14T13:48:18.465Z,2.13
2022-08-14T13:50:59.256Z,3.30
2022-08-14T13:53:33.381Z,3.17
2022-08-14T13:56:01.445Z,6.85
2022-08-14T13:58:35.698Z,2.53
2022-08-14T14:01:04.438Z,2.35
2022-08-14T14:03:35.222Z,5.68
2022-08-14T14:06:03.437Z,3.10
2022-08-14T14:08:45.881Z,3.80
2022-08-14T14:11:17.017Z,2.65
2022-08-14T14:13:45.989Z,2.23
2022-08-14T14:16:15.120Z,3.67
2022-08-14T14:18:55.835Z,1.95
2022-08-14T14:21:26.622Z,3.75
2022-08-14T14:23:56.265Z,3.42
2022-08-14T14:26:24.303Z,2.53
2022-08-14T14:28:55.334Z,3.00
2022-08-14T14:31:30.094Z,2.78
2022-08-14T14:34:07.303Z,3.58
2022-08-14T14:36:43.793Z,2.95
2022-08-14T14:39:11.092Z,2.30
2022-08-14T14:41:43.861Z,3.35
2022-08-14T14:44:15.629Z,4.68
2022-08-14T14:46:45.014Z,3.15
2022-08-14T14:49:14.346Z,5.55
2022-08-14T14:51:46.939Z,1.98
2022-08-14T14:54:31.669Z,4.18
2022-08-14T14:57:02.483Z,3.95
2022-08-14T14:59:35.961Z,3.55
2022-08-14T15:02:06.326Z,2.92
2022-08-14T15:04:37.850Z,2.97
2022-08-14T15:07:05.928Z,2.45
2022-08-14T15:09:34.025Z,2.35
2022-08-14T15:12:00.743Z,2.88
2022-08-14T15:14:55.057Z,3.78
2022-08-14T15:17:13.931Z,2.70
2022-08-14T15:19:42.051Z,3.97
2022-08-14T15:22:25.072Z,3.35
2022-08-14T15:24:51.941Z,3.92
2022-08-14T15:27:26.326Z,3.50
2022-08-14T15:29:53.503Z,5.03
2022-08-14T15:32:23.169Z,2.80
2022-08-14T15:34:51.514Z,4.65
2022-08-14T15:37:22.082Z,3.07
2022-08-14T15:39:49.910Z,2.63
2022-08-14T15:42:23.060Z,3.17
2022-08-14T15:44:58.016Z,3.45
2022-08-14T15:47:30.134Z,2.72
2022-08-14T15:50:04.404Z,3.45
2022-08-14T15:52:35.245Z,2.60
2022-08-14T15:55:07.538Z,3.03
2022-08-14T15:57:34.998Z,2.30
2022-08-14T16:00:37.902Z,3.17
2022-08-14T16:03:11.567Z,3.88
2022-08-14T16:05:38.894Z,2.47
2022-08-14T16:08:29.376Z,3.60
2022-08-14T16:10:55.127Z,3.17
2022-08-14T16:13:41.629Z,3.45
2022-08-14T16:16:49.159Z,4.30
2022-08-14T16:19:09.673Z,4.28
2022-08-14T16:21:40.539Z,3.95
2022-08-14T16:24:27.874Z,4.80
2022-08-14T16:27:00.922Z,3.05
2022-08-14T16:29:32.861Z,3.30
2022-08-14T16:32:02.021Z,5.60
2022-08-14T16:34:51.098Z,3.85
2022-08-14T16:37:22.530Z,7.68
2022-08-14T16:39:49.434Z,8.27
2022-08-14T16:43:02.419Z,5.60
2022-08-14T16:45:12.749Z,5.45
2022-08-14T16:47:39.986Z,3.80
2022-08-14T16:50:10.453Z,6.18
2022-08-14T16:52:44.921Z,4.65
2022-08-14T16:55:22.403Z,4.03
2022-08-14T16:57:58.779Z,5.53
2022-08-14T17:00:43.851Z,3.17
2022-08-14T17:03:12.666Z,4.53
2022-08-14T17:05:46.567Z,3.83
2022-08-14T17:08:41.532Z,3.53
2022-08-14T17:11:10.633Z,5.32
2022-08-14T17:13:59.215Z,3.00
2022-08-14T17:16:38.552Z,3.20
2022-08-14T17:19:13.772Z,5.82
2022-08-14T17:21:42.026Z,4.72
2022-08-14T17:24:57.804Z,5.88
2022-08-14T17:27:04.006Z,6.00
2022-08-14T17:29:33.724Z,3.53
2022-08-14T17:32:22.074Z,8.88
2022-08-14T17:34:55.304Z,4.03
2022-08-14T17:37:35.455Z,5.10
2022-08-14T17:40:13.754Z,4.07
2022-08-14T17:42:45.427Z,8.82
2022-08-14T17:45:41.236Z,5.00
2022-08-14T17:49:13.807Z,6.80
2022-08-14T17:51:12.338Z,4.18
2022-08-14T17:53:52.692Z,4.45
2022-08-14T17:56:20.545Z,5.32
2022-08-14T17:58:49.431Z,5.43
2022-08-14T18:01:17.405Z,4.80
2022-08-14T18:03:53.622Z,4.75
2022-08-14T18:06:39.988Z,7.63
2022-08-14T18:12:01.361Z,5.90
2022-08-14T18:14:32.387Z,5.80
2022-08-14T18:17:01.489Z,6.95
2022-08-14T18:19:30.762Z,5.88
2022-08-14T18:21:59.556Z,6.60
2022-08-14T18:24:29.873Z,5.25
2022-08-14T18:27:11.894Z,6.28
2022-08-14T18:29:54.959Z,6.32
2022-08-14T18:32:31.389Z,6.85
2022-08-14T18:35:11.304Z,13.70
2022-08-14T18:37:41.394Z,8.93
2022-08-14T18:40:22.484Z,14.90
2022-08-14T18:43:03.365Z,15.48
2022-08-14T18:45:33.385Z,4.78
2022-08-14T18:48:18.571Z,5.37
2022-08-14T18:50:52.273Z,6.65
2022-08-14T18:53:20.361Z,7.75
2022-08-14T18:55:59.798Z,7.68
2022-08-14T18:58:58.604Z,6.25
2022-08-14T19:01:29.810Z,5.65
2022-08-14T19:03:58.575Z,6.10
2022-08-14T19:06:37.619Z,8.07
2022-08-14T19:09:05.094Z,4.93
2022-08-14T19:11:31.937Z,4.65
2022-08-14T19:13:59.756Z,6.13
2022-08-14T19:16:35.647Z,5.72
2022-08-14T19:19:06.791Z,7.82
2022-08-14T19:21:40.047Z,6.78
2022-08-14T19:24:27.323Z,7.63
2022-08-14T19:27:16.768Z,6.07
2022-08-14T19:29:47.652Z,8.35
2022-08-14T19:32:36.837Z,6.72
2022-08-14T19:35:16.859Z,7.50
2022-08-14T19:38:00.206Z,7.22
2022-08-14T19:40:39.147Z,8.40
2022-08-14T19:43:09.392Z,7.65
2022-08-14T19:45:38.072Z,9.20
2022-08-14T19:48:12.706Z,12.38
2022-08-14T19:50:40.542Z,7.38
2022-08-14T19:53:16.643Z,8.75
2022-08-14T19:55:54.483Z,7.22
2022-08-14T19:58:30.135Z,9.05
2022-08-14T20:01:01.446Z,7.20
2022-08-14T20:03:59.790Z,8.98
2022-08-14T20:06:28.201Z,6.32
2022-08-14T20:11:01.368Z,7.07
2022-08-14T20:12:01.507Z,6.47
2022-08-14T20:14:36.546Z,7.20
2022-08-14T20:17:06.702Z,6.82
2022-08-14T20:19:37.777Z,6.55
2022-08-14T20:22:36.342Z,8.60
2022-08-14T20:25:10.931Z,5.57
2022-08-14T20:27:44.123Z,9.60
2022-08-14T20:30:33.037Z,4.47
2022-08-14T20:33:07.667Z,6.85
2022-08-14T20:35:39.643Z,5.55
2022-08-14T20:38:31.815Z,8.25
2022-08-14T20:41:07.555Z,5.70
2022-08-14T20:43:59.456Z,5.45
2022-08-14T20:46:31.250Z,9.75
2022-08-14T20:49:16.493Z,5.85
2022-08-14T20:51:54.632Z,5.95
2022-08-14T20:54:49.317Z,6.63
2022-08-14T20:57:18.722Z,6.55
2022-08-14T20:59:53.436Z,6.80
2022-08-14T21:02:29.705Z,7.82
2022-08-14T21:05:04.564Z,8.82
2022-08-14T21:07:44.455Z,6.57
2022-08-14T21:10:35.826Z,6.45
2022-08-14T21:13:25.754Z,6.95
2022-08-14T21:15:56.689Z,7.03
2022-08-14T21:18:24.367Z,8.25
2022-08-14T21:20:56.256Z,28.60
2022-08-14T21:23:23.157Z,8.95
2022-08-14T21:25:50.012Z,10.18
2022-08-14T21:28:29.774Z,11.55
2022-08-14T21:31:01.497Z,9.25
2022-08-14T21:33:28.574Z,9.70
2022-08-14T21:36:08.050Z,9.25
2022-08-14T21:38:36.456Z,8.80
2022-08-14T21:41:42.156Z,9.38
2022-08-14T21:44:17.019Z,7.10
2022-08-14T21:46:55.024Z,7.57
2022-08-14T21:49:23.871Z,8.57
2022-08-14T21:51:59.901Z,8.75
2022-08-14T21:54:49.338Z,7.32
2022-08-14T21:58:03.554Z,7.90
2022-08-14T22:00:34.655Z,8.65
2022-08-14T22:03:00.474Z,8.20
2022-08-14T22:05:29.523Z,8.32
2022-08-14T22:07:56.704Z,7.68
2022-08-14T22:10:24.241Z,8.93
2022-08-14T22:13:00.680Z,8.38
2022-08-14T22:15:28.921Z,6.78
2022-08-14T22:17:58.247Z,7.93
2022-08-14T22:20:28.835Z,8.77
2022-08-14T22:25:33.226Z,8.25
2022-08-14T22:28:00.933Z,8.05
2022-08-14T22:30:27.527Z,9.65
2022-08-14T22:32:56.622Z,8.27
2022-08-14T22:35:25.216Z,7.70
2022-08-14T22:38:35.895Z,6.40
2022-08-14T22:41:02.711Z,6.90
2022-08-14T22:43:31.393Z,5.57
2022-08-14T22:46:02.143Z,7.28
2022-08-14T22:48:29.707Z,6.63
2022-08-14T22:50:56.334Z,6.20
2022-08-14T22:53:29.590Z,7.97
2022-08-14T22:55:56.777Z,9.60
2022-08-14T22:58:31.433Z,8.20
2022-08-14T23:01:02.323Z,6.13
2022-08-14T23:03:34.101Z,6.88
2022-08-14T23:06:02.131Z,6.57
2022-08-14T23:08:58.573Z,8.63
2022-08-14T23:11:15.836Z,6.25
2022-08-14T23:13:46.141Z,7.10
2022-08-14T23:16:20.477Z,7.90
2022-08-14T23:18:53.881Z,6.03
2022-08-14T23:21:24.613Z,9.70
2022-08-14T23:23:55.126Z,6.55
2022-08-14T23:26:48.990Z,7.78
2022-08-14T23:29:09.073Z,6.90
2022-08-14T23:31:38.388Z,8.35
2022-08-14T23:34:09.125Z,6.75
2022-08-14T23:36:53.410Z,6.80
2022-08-14T23:39:32.515Z,9.98
2022-08-14T23:42:08.482Z,6.07
2022-08-14T23:44:37.521Z,5.32
2022-08-14T23:47:10.617Z,8.25
2022-08-14T23:50:00.410Z,9.25
2022-08-14T23:52:56.256Z,10.63
2022-08-14T23:55:13.287Z,7.40
2022-08-14T23:57:43.952Z,9.13
